Terminal Aerodrome Forecast
Issued by NWS Binghamton, NY

Home | Current Version | Previous Version | Text Only | Print | Product List | Glossary On
Versions: 1 2 3 4 5 6 7 8 9 10 11 12 13 14 15 16 17 18 19 20 21 22 23
106
FTUS41 KBGM 121738
TAFBGM
TAF
KBGM 121738Z 1218/1318 22012G22KT P6SM SCT035 BKN070
      TEMPO 1222/1302 OVC035
     FM130200 24010KT P6SM OVC045
      TEMPO 1304/1307 2SM -SHSN OVC025
     FM130700 31015G30KT 5SM -SHSN BLSN SCT025 BKN035
      TEMPO 1307/1310 3/4SM -SHSN BLSN OVC015=

USA.gov is the U.S. government's official web portal to all federal, state and local government web resources and services.